sensor_id;sensor_type;location;lat;lon;timestamp;temperature;humidity
18408;DHT22;9330;52.210;21.174;2022-11-25T00:01:26;-0.40;99.90
18408;DHT22;9330;52.210;21.174;2022-11-25T00:03:55;-0.40;99.90
18408;DHT22;9330;52.210;21.174;2022-11-25T00:06:23;-0.50;99.90
18408;DHT22;9330;52.210;21.174;2022-11-25T00:08:54;-0.30;99.90
18408;DHT22;9330;52.210;21.174;2022-11-25T00:11:21;-0.40;99.90
18408;DHT22;9330;52.210;21.174;2022-11-25T00:13:48;-0.50;99.90
18408;DHT22;9330;52.210;21.174;2022-11-25T00:16:16;-0.40;99.90
18408;DHT22;9330;52.210;21.174;2022-11-25T00:18:45;-0.40;99.90
18408;DHT22;9330;52.210;21.174;2022-11-25T00:21:14;-0.50;99.90
18408;DHT22;9330;52.210;21.174;2022-11-25T00:23:41;-0.50;99.90
18408;DHT22;9330;52.210;21.174;2022-11-25T00:26:10;-0.30;99.90
18408;DHT22;9330;52.210;21.174;2022-11-25T00:28:38;-0.40;99.90
18408;DHT22;9330;52.210;21.174;2022-11-25T00:31:06;-0.40;99.90
18408;DHT22;9330;52.210;21.174;2022-11-25T00:33:34;-0.40;99.90
18408;DHT22;9330;52.210;21.174;2022-11-25T00:36:03;-0.30;99.90
18408;DHT22;9330;52.210;21.174;2022-11-25T00:38:30;-0.50;99.90
18408;DHT22;9330;52.210;21.174;2022-11-25T00:40:57;-0.50;99.90
18408;DHT22;9330;52.210;21.174;2022-11-25T00:43:38;-0.50;99.90
18408;DHT22;9330;52.210;21.174;2022-11-25T00:46:22;-0.50;99.90
18408;DHT22;9330;52.210;21.174;2022-11-25T00:48:49;-0.50;99.90
18408;DHT22;9330;52.210;21.174;2022-11-25T00:51:18;-0.60;99.90
18408;DHT22;9330;52.210;21.174;2022-11-25T00:53:45;-0.50;99.90
18408;DHT22;9330;52.210;21.174;2022-11-25T00:56:11;-0.50;99.90
18408;DHT22;9330;52.210;21.174;2022-11-25T00:58:38;-0.40;99.90
18408;DHT22;9330;52.210;21.174;2022-11-25T01:01:05;-0.50;99.90
18408;DHT22;9330;52.210;21.174;2022-11-25T01:03:32;-0.50;99.90
18408;DHT22;9330;52.210;21.174;2022-11-25T01:06:02;-0.50;99.90
18408;DHT22;9330;52.210;21.174;2022-11-25T01:08:30;-0.50;99.90
18408;DHT22;9330;52.210;21.174;2022-11-25T01:10:57;-0.50;99.90
18408;DHT22;9330;52.210;21.174;2022-11-25T01:13:25;-0.50;99.90
18408;DHT22;9330;52.210;21.174;2022-11-25T01:15:52;-0.50;99.90
18408;DHT22;9330;52.210;21.174;2022-11-25T01:18:19;-0.30;99.90
18408;DHT22;9330;52.210;21.174;2022-11-25T01:20:46;-0.50;99.90
18408;DHT22;9330;52.210;21.174;2022-11-25T01:23:13;-0.40;99.90
18408;DHT22;9330;52.210;21.174;2022-11-25T01:25:41;-0.40;99.90
18408;DHT22;9330;52.210;21.174;2022-11-25T01:28:08;-0.30;99.90
18408;DHT22;9330;52.210;21.174;2022-11-25T01:30:34;-0.40;99.90
18408;DHT22;9330;52.210;21.174;2022-11-25T01:33:01;-0.50;99.90
18408;DHT22;9330;52.210;21.174;2022-11-25T01:35:28;-0.40;99.90
18408;DHT22;9330;52.210;21.174;2022-11-25T01:37:55;-0.40;99.90
18408;DHT22;9330;52.210;21.174;2022-11-25T01:40:22;-0.40;99.90
18408;DHT22;9330;52.210;21.174;2022-11-25T01:42:50;-0.50;99.90
18408;DHT22;9330;52.210;21.174;2022-11-25T01:45:35;-0.50;99.90
18408;DHT22;9330;52.210;21.174;2022-11-25T01:48:09;-0.50;99.90
18408;DHT22;9330;52.210;21.174;2022-11-25T01:50:38;-0.40;99.90
18408;DHT22;9330;52.210;21.174;2022-11-25T01:53:07;-0.50;99.90
18408;DHT22;9330;52.210;21.174;2022-11-25T01:55:36;-0.40;99.90
18408;DHT22;9330;52.210;21.174;2022-11-25T01:58:10;-0.40;99.90
18408;DHT22;9330;52.210;21.174;2022-11-25T02:00:38;-0.40;99.90
18408;DHT22;9330;52.210;21.174;2022-11-25T02:03:06;-0.50;99.90
18408;DHT22;9330;52.210;21.174;2022-11-25T02:05:37;-0.50;99.90
18408;DHT22;9330;52.210;21.174;2022-11-25T02:08:06;-0.50;99.90
18408;DHT22;9330;52.210;21.174;2022-11-25T02:10:34;-0.50;99.90
18408;DHT22;9330;52.210;21.174;2022-11-25T02:13:02;-0.50;99.90
18408;DHT22;9330;52.210;21.174;2022-11-25T02:15:32;-0.60;99.90
18408;DHT22;9330;52.210;21.174;2022-11-25T02:18:01;-0.60;99.90
18408;DHT22;9330;52.210;21.174;2022-11-25T02:20:28;-0.60;99.90
18408;DHT22;9330;52.210;21.174;2022-11-25T02:22:59;-0.60;99.90
18408;DHT22;9330;52.210;21.174;2022-11-25T02:25:31;-0.60;99.90
18408;DHT22;9330;52.210;21.174;2022-11-25T02:28:00;-0.60;99.90
18408;DHT22;9330;52.210;21.174;2022-11-25T02:30:28;-0.60;99.90
18408;DHT22;9330;52.210;21.174;2022-11-25T02:32:57;-0.60;99.90
18408;DHT22;9330;52.210;21.174;2022-11-25T02:35:28;-0.60;99.90
18408;DHT22;9330;52.210;21.174;2022-11-25T02:37:59;-0.60;99.90
18408;DHT22;9330;52.210;21.174;2022-11-25T02:40:28;-0.50;99.90
18408;DHT22;9330;52.210;21.174;2022-11-25T02:42:58;-0.60;99.90
18408;DHT22;9330;52.210;21.174;2022-11-25T02:45:32;-0.60;99.90
18408;DHT22;9330;52.210;21.174;2022-11-25T02:47:59;-0.60;99.90
18408;DHT22;9330;52.210;21.174;2022-11-25T02:50:26;-0.50;99.90
18408;DHT22;9330;52.210;21.174;2022-11-25T02:52:53;-0.60;99.90
18408;DHT22;9330;52.210;21.174;2022-11-25T02:55:20;-0.60;99.90
18408;DHT22;9330;52.210;21.174;2022-11-25T02:57:48;-0.60;99.90
18408;DHT22;9330;52.210;21.174;2022-11-25T03:00:16;-0.60;99.90
18408;DHT22;9330;52.210;21.174;2022-11-25T03:02:43;-0.70;99.90
18408;DHT22;9330;52.210;21.174;2022-11-25T03:05:10;-0.60;99.90
18408;DHT22;9330;52.210;21.174;2022-11-25T03:07:37;-0.60;99.90
18408;DHT22;9330;52.210;21.174;2022-11-25T03:10:05;-0.60;99.90
18408;DHT22;9330;52.210;21.174;2022-11-25T03:12:32;-0.60;99.90
18408;DHT22;9330;52.210;21.174;2022-11-25T03:15:00;-0.50;99.90
18408;DHT22;9330;52.210;21.174;2022-11-25T03:17:27;-0.60;99.90
18408;DHT22;9330;52.210;21.174;2022-11-25T03:19:54;-0.60;99.90
18408;DHT22;9330;52.210;21.174;2022-11-25T03:22:21;-0.40;99.90
18408;DHT22;9330;52.210;21.174;2022-11-25T03:24:48;-0.60;99.90
18408;DHT22;9330;52.210;21.174;2022-11-25T03:27:15;-0.60;99.90
18408;DHT22;9330;52.210;21.174;2022-11-25T03:29:43;-0.50;99.90
18408;DHT22;9330;52.210;21.174;2022-11-25T03:32:11;-0.60;99.90
18408;DHT22;9330;52.210;21.174;2022-11-25T03:34:38;-0.60;99.90
18408;DHT22;9330;52.210;21.174;2022-11-25T03:37:05;-0.70;99.90
18408;DHT22;9330;52.210;21.174;2022-11-25T03:39:32;-0.60;99.90
18408;DHT22;9330;52.210;21.174;2022-11-25T03:41:59;-0.60;99.90
18408;DHT22;9330;52.210;21.174;2022-11-25T03:44:26;-0.60;99.90
18408;DHT22;9330;52.210;21.174;2022-11-25T03:46:52;-0.60;99.90
18408;DHT22;9330;52.210;21.174;2022-11-25T03:49:21;-0.60;99.90
18408;DHT22;9330;52.210;21.174;2022-11-25T03:51:48;-0.60;99.90
18408;DHT22;9330;52.210;21.174;2022-11-25T03:54:15;-0.60;99.90
18408;DHT22;9330;52.210;21.174;2022-11-25T03:56:41;-0.70;99.90
18408;DHT22;9330;52.210;21.174;2022-11-25T03:59:08;-0.60;99.90
18408;DHT22;9330;52.210;21.174;2022-11-25T04:01:35;-0.60;99.90
18408;DHT22;9330;52.210;21.174;2022-11-25T04:04:02;-0.60;99.90
18408;DHT22;9330;52.210;21.174;2022-11-25T04:06:31;-0.60;99.90
18408;DHT22;9330;52.210;21.174;2022-11-25T04:08:58;-0.50;99.90
18408;DHT22;9330;52.210;21.174;2022-11-25T04:11:25;-0.60;99.90
18408;DHT22;9330;52.210;21.174;2022-11-25T04:14:12;-0.60;99.90
18408;DHT22;9330;52.210;21.174;2022-11-25T04:16:38;-0.60;99.90
18408;DHT22;9330;52.210;21.174;2022-11-25T04:19:05;-0.60;99.90
18408;DHT22;9330;52.210;21.174;2022-11-25T04:21:33;-0.60;99.90
18408;DHT22;9330;52.210;21.174;2022-11-25T04:24:00;-0.60;99.90
18408;DHT22;9330;52.210;21.174;2022-11-25T04:26:27;-0.60;99.90
18408;DHT22;9330;52.210;21.174;2022-11-25T04:28:54;-0.60;99.90
18408;DHT22;9330;52.210;21.174;2022-11-25T04:31:21;-0.60;99.90
18408;DHT22;9330;52.210;21.174;2022-11-25T04:33:48;-0.60;99.90
18408;DHT22;9330;52.210;21.174;2022-11-25T04:36:15;-0.60;99.90
18408;DHT22;9330;52.210;21.174;2022-11-25T04:38:43;-0.50;99.90
18408;DHT22;9330;52.210;21.174;2022-11-25T04:41:10;-0.60;99.90
18408;DHT22;9330;52.210;21.174;2022-11-25T04:43:37;-0.60;99.90
18408;DHT22;9330;52.210;21.174;2022-11-25T04:46:04;-0.60;99.90
18408;DHT22;9330;52.210;21.174;2022-11-25T04:48:31;-0.60;99.90
18408;DHT22;9330;52.210;21.174;2022-11-25T04:50:58;-0.60;99.90
18408;DHT22;9330;52.210;21.174;2022-11-25T04:53:25;-0.50;99.90
18408;DHT22;9330;52.210;21.174;2022-11-25T04:55:53;-0.60;99.90
18408;DHT22;9330;52.210;21.174;2022-11-25T04:58:20;-0.50;99.90
18408;DHT22;9330;52.210;21.174;2022-11-25T05:01:01;-0.50;99.90
18408;DHT22;9330;52.210;21.174;2022-11-25T05:03:28;-0.50;99.90
18408;DHT22;9330;52.210;21.174;2022-11-25T05:05:55;-0.50;99.90
18408;DHT22;9330;52.210;21.174;2022-11-25T05:08:21;-0.50;99.90
18408;DHT22;9330;52.210;21.174;2022-11-25T05:10:48;-0.60;99.90
18408;DHT22;9330;52.210;21.174;2022-11-25T05:13:17;-0.50;99.90
18408;DHT22;9330;52.210;21.174;2022-11-25T05:15:43;-0.60;99.90
18408;DHT22;9330;52.210;21.174;2022-11-25T05:18:10;-0.50;99.90
18408;DHT22;9330;52.210;21.174;2022-11-25T05:20:37;-0.50;99.90
18408;DHT22;9330;52.210;21.174;2022-11-25T05:23:04;-0.50;99.90
18408;DHT22;9330;52.210;21.174;2022-11-25T05:25:31;-0.50;99.90
18408;DHT22;9330;52.210;21.174;2022-11-25T05:27:58;-0.50;99.90
18408;DHT22;9330;52.210;21.174;2022-11-25T05:30:26;-0.50;99.90
18408;DHT22;9330;52.210;21.174;2022-11-25T05:32:53;-0.50;99.90
18408;DHT22;9330;52.210;21.174;2022-11-25T05:35:20;-0.50;99.90
18408;DHT22;9330;52.210;21.174;2022-11-25T05:37:47;-0.50;99.90
18408;DHT22;9330;52.210;21.174;2022-11-25T05:40:14;-0.50;99.90
18408;DHT22;9330;52.210;21.174;2022-11-25T05:42:41;-0.50;99.90
18408;DHT22;9330;52.210;21.174;2022-11-25T05:45:08;-0.40;99.90
18408;DHT22;9330;52.210;21.174;2022-11-25T05:47:37;-0.50;99.90
18408;DHT22;9330;52.210;21.174;2022-11-25T05:50:05;-0.40;99.90
18408;DHT22;9330;52.210;21.174;2022-11-25T05:52:32;-0.50;99.90
18408;DHT22;9330;52.210;21.174;2022-11-25T05:54:59;-0.50;99.90
18408;DHT22;9330;52.210;21.174;2022-11-25T05:57:26;-0.50;99.90
18408;DHT22;9330;52.210;21.174;2022-11-25T05:59:53;-0.50;99.90
18408;DHT22;9330;52.210;21.174;2022-11-25T06:02:20;-0.40;99.90
18408;DHT22;9330;52.210;21.174;2022-11-25T06:04:48;-0.40;99.90
18408;DHT22;9330;52.210;21.174;2022-11-25T06:07:15;-0.40;99.90
18408;DHT22;9330;52.210;21.174;2022-11-25T06:09:42;-0.50;99.90
18408;DHT22;9330;52.210;21.174;2022-11-25T06:12:09;-0.50;99.90
18408;DHT22;9330;52.210;21.174;2022-11-25T06:14:36;-0.40;99.90
18408;DHT22;9330;52.210;21.174;2022-11-25T06:17:03;-0.40;99.90
18408;DHT22;9330;52.210;21.174;2022-11-25T06:19:30;-0.40;99.90
18408;DHT22;9330;52.210;21.174;2022-11-25T06:21:58;-0.40;99.90
18408;DHT22;9330;52.210;21.174;2022-11-25T06:24:25;-0.40;99.90
18408;DHT22;9330;52.210;21.174;2022-11-25T06:26:52;-0.40;99.90
18408;DHT22;9330;52.210;21.174;2022-11-25T06:29:18;-0.40;99.90
18408;DHT22;9330;52.210;21.174;2022-11-25T06:31:47;-0.30;99.90
18408;DHT22;9330;52.210;21.174;2022-11-25T06:34:15;-0.40;99.90
18408;DHT22;9330;52.210;21.174;2022-11-25T06:36:42;-0.30;99.90
18408;DHT22;9330;52.210;21.174;2022-11-25T06:39:10;-0.30;99.90
18408;DHT22;9330;52.210;21.174;2022-11-25T06:41:37;-0.40;99.90
18408;DHT22;9330;52.210;21.174;2022-11-25T06:44:04;-0.30;99.90
18408;DHT22;9330;52.210;21.174;2022-11-25T06:46:31;-0.30;99.90
18408;DHT22;9330;52.210;21.174;2022-11-25T06:48:58;-0.30;99.90
18408;DHT22;9330;52.210;21.174;2022-11-25T06:51:26;-0.30;99.90
18408;DHT22;9330;52.210;21.174;2022-11-25T06:53:52;-0.30;99.90
18408;DHT22;9330;52.210;21.174;2022-11-25T06:56:22;-0.30;99.90
18408;DHT22;9330;52.210;21.174;2022-11-25T06:58:50;-0.20;99.90
18408;DHT22;9330;52.210;21.174;2022-11-25T07:01:19;-0.20;99.90
18408;DHT22;9330;52.210;21.174;2022-11-25T07:03:47;0.00;99.90
18408;DHT22;9330;52.210;21.174;2022-11-25T07:06:16;-0.20;99.90
18408;DHT22;9330;52.210;21.174;2022-11-25T07:08:43;-0.20;99.90
18408;DHT22;9330;52.210;21.174;2022-11-25T07:11:15;-0.10;99.90
18408;DHT22;9330;52.210;21.174;2022-11-25T07:13:43;-0.10;99.90
18408;DHT22;9330;52.210;21.174;2022-11-25T07:16:11;-0.10;99.90
18408;DHT22;9330;52.210;21.174;2022-11-25T07:18:39;0.00;99.90
18408;DHT22;9330;52.210;21.174;2022-11-25T07:21:07;-0.10;99.90
18408;DHT22;9330;52.210;21.174;2022-11-25T07:23:36;0.10;99.90
18408;DHT22;9330;52.210;21.174;2022-11-25T07:26:05;0.00;99.90
18408;DHT22;9330;52.210;21.174;2022-11-25T07:28:33;0.00;99.90
18408;DHT22;9330;52.210;21.174;2022-11-25T07:31:07;0.00;99.90
18408;DHT22;9330;52.210;21.174;2022-11-25T07:33:34;0.00;99.90
18408;DHT22;9330;52.210;21.174;2022-11-25T07:36:03;0.10;99.90
18408;DHT22;9330;52.210;21.174;2022-11-25T07:38:30;0.00;99.90
18408;DHT22;9330;52.210;21.174;2022-11-25T07:41:04;0.10;99.90
18408;DHT22;9330;52.210;21.174;2022-11-25T07:43:31;0.10;99.90
18408;DHT22;9330;52.210;21.174;2022-11-25T07:46:09;0.10;99.90
18408;DHT22;9330;52.210;21.174;2022-11-25T07:48:39;0.10;99.90
18408;DHT22;9330;52.210;21.174;2022-11-25T07:51:13;0.10;99.90
18408;DHT22;9330;52.210;21.174;2022-11-25T07:53:40;0.20;99.90
18408;DHT22;9330;52.210;21.174;2022-11-25T07:56:07;0.20;99.90
18408;DHT22;9330;52.210;21.174;2022-11-25T07:58:34;0.30;99.90
18408;DHT22;9330;52.210;21.174;2022-11-25T08:01:01;0.30;99.90
18408;DHT22;9330;52.210;21.174;2022-11-25T08:03:31;0.30;99.90
18408;DHT22;9330;52.210;21.174;2022-11-25T08:05:59;0.40;99.90
18408;DHT22;9330;52.210;21.174;2022-11-25T08:08:26;0.40;99.90
18408;DHT22;9330;52.210;21.174;2022-11-25T08:10:53;0.40;99.90
18408;DHT22;9330;52.210;21.174;2022-11-25T08:13:20;0.40;99.90
18408;DHT22;9330;52.210;21.174;2022-11-25T08:15:47;0.40;99.90
18408;DHT22;9330;52.210;21.174;2022-11-25T08:18:15;0.40;99.90
18408;DHT22;9330;52.210;21.174;2022-11-25T08:20:44;0.50;99.90
18408;DHT22;9330;52.210;21.174;2022-11-25T08:23:10;0.60;99.90
18408;DHT22;9330;52.210;21.174;2022-11-25T08:25:39;0.50;99.90
18408;DHT22;9330;52.210;21.174;2022-11-25T08:28:06;0.60;99.90
18408;DHT22;9330;52.210;21.174;2022-11-25T08:30:34;0.50;99.90
18408;DHT22;9330;52.210;21.174;2022-11-25T08:33:01;0.50;99.90
18408;DHT22;9330;52.210;21.174;2022-11-25T08:35:29;0.50;99.90
18408;DHT22;9330;52.210;21.174;2022-11-25T08:37:58;0.50;99.90
18408;DHT22;9330;52.210;21.174;2022-11-25T08:40:25;0.50;99.90
18408;DHT22;9330;52.210;21.174;2022-11-25T08:42:52;0.50;99.90
18408;DHT22;9330;52.210;21.174;2022-11-25T08:45:19;0.70;99.90
18408;DHT22;9330;52.210;21.174;2022-11-25T08:47:46;0.50;99.90
18408;DHT22;9330;52.210;21.174;2022-11-25T08:50:14;0.60;99.90
18408;DHT22;9330;52.210;21.174;2022-11-25T08:52:41;0.50;99.90
18408;DHT22;9330;52.210;21.174;2022-11-25T08:55:10;0.60;99.90
18408;DHT22;9330;52.210;21.174;2022-11-25T08:57:37;0.60;99.90
18408;DHT22;9330;52.210;21.174;2022-11-25T09:00:05;0.50;99.90
18408;DHT22;9330;52.210;21.174;2022-11-25T09:02:32;0.50;99.90
18408;DHT22;9330;52.210;21.174;2022-11-25T09:04:59;0.80;99.90
18408;DHT22;9330;52.210;21.174;2022-11-25T09:07:26;0.60;99.90
18408;DHT22;9330;52.210;21.174;2022-11-25T09:09:53;0.80;99.90
18408;DHT22;9330;52.210;21.174;2022-11-25T09:12:21;0.60;99.90
18408;DHT22;9330;52.210;21.174;2022-11-25T09:14:48;0.70;99.90
18408;DHT22;9330;52.210;21.174;2022-11-25T09:17:15;0.70;99.90
18408;DHT22;9330;52.210;21.174;2022-11-25T09:19:42;0.60;99.90
18408;DHT22;9330;52.210;21.174;2022-11-25T09:22:09;0.70;99.90
18408;DHT22;9330;52.210;21.174;2022-11-25T09:24:36;0.70;99.90
18408;DHT22;9330;52.210;21.174;2022-11-25T09:27:03;0.60;99.90
18408;DHT22;9330;52.210;21.174;2022-11-25T09:29:31;0.70;99.90
18408;DHT22;9330;52.210;21.174;2022-11-25T09:31:58;0.70;99.90
18408;DHT22;9330;52.210;21.174;2022-11-25T09:34:25;0.70;99.90
18408;DHT22;9330;52.210;21.174;2022-11-25T09:36:52;0.70;99.90
18408;DHT22;9330;52.210;21.174;2022-11-25T09:39:19;0.70;99.90
18408;DHT22;9330;52.210;21.174;2022-11-25T09:42:13;0.70;99.90
18408;DHT22;9330;52.210;21.174;2022-11-25T09:45:13;0.70;99.90
18408;DHT22;9330;52.210;21.174;2022-11-25T09:48:10;0.70;99.90
18408;DHT22;9330;52.210;21.174;2022-11-25T09:50:50;0.70;99.90
18408;DHT22;9330;52.210;21.174;2022-11-25T09:53:29;0.80;99.90
18408;DHT22;9330;52.210;21.174;2022-11-25T09:56:03;0.80;99.90
18408;DHT22;9330;52.210;21.174;2022-11-25T09:58:33;0.70;99.90
18408;DHT22;9330;52.210;21.174;2022-11-25T10:01:03;0.90;99.90
18408;DHT22;9330;52.210;21.174;2022-11-25T10:14:48;0.80;99.90
18408;DHT22;9330;52.210;21.174;2022-11-25T10:17:24;0.70;99.90
18408;DHT22;9330;52.210;21.174;2022-11-25T10:20:00;0.70;99.90
18408;DHT22;9330;52.210;21.174;2022-11-25T10:22:32;0.60;99.90
18408;DHT22;9330;52.210;21.174;2022-11-25T10:25:05;0.60;99.90
18408;DHT22;9330;52.210;21.174;2022-11-25T10:27:40;0.70;99.90
18408;DHT22;9330;52.210;21.174;2022-11-25T10:30:16;0.70;99.90
18408;DHT22;9330;52.210;21.174;2022-11-25T10:32:47;0.60;99.90
18408;DHT22;9330;52.210;21.174;2022-11-25T10:35:25;0.60;99.90
18408;DHT22;9330;52.210;21.174;2022-11-25T10:37:57;0.60;99.90
18408;DHT22;9330;52.210;21.174;2022-11-25T10:40:25;0.70;99.90
18408;DHT22;9330;52.210;21.174;2022-11-25T10:42:52;0.70;99.90
18408;DHT22;9330;52.210;21.174;2022-11-25T10:45:26;0.90;99.90
18408;DHT22;9330;52.210;21.174;2022-11-25T10:48:12;0.60;99.90
18408;DHT22;9330;52.210;21.174;2022-11-25T10:50:59;0.60;99.90
18408;DHT22;9330;52.210;21.174;2022-11-25T10:53:29;0.60;99.90
18408;DHT22;9330;52.210;21.174;2022-11-25T10:55:58;0.60;99.90
18408;DHT22;9330;52.210;21.174;2022-11-25T10:58:31;0.60;99.90
18408;DHT22;9330;52.210;21.174;2022-11-25T11:01:06;0.60;99.90
18408;DHT22;9330;52.210;21.174;2022-11-25T11:03:38;0.70;99.90
18408;DHT22;9330;52.210;21.174;2022-11-25T11:06:05;0.60;99.90
18408;DHT22;9330;52.210;21.174;2022-11-25T11:08:37;0.70;99.90
18408;DHT22;9330;52.210;21.174;2022-11-25T11:11:19;0.70;99.90
18408;DHT22;9330;52.210;21.174;2022-11-25T11:13:47;0.70;99.90
18408;DHT22;9330;52.210;21.174;2022-11-25T11:16:38;0.70;99.90
18408;DHT22;9330;52.210;21.174;2022-11-25T11:19:12;0.70;99.90
18408;DHT22;9330;52.210;21.174;2022-11-25T11:21:45;0.70;99.90
18408;DHT22;9330;52.210;21.174;2022-11-25T11:24:24;0.70;99.90
18408;DHT22;9330;52.210;21.174;2022-11-25T11:27:02;0.70;99.90
18408;DHT22;9330;52.210;21.174;2022-11-25T11:29:29;0.70;99.90
18408;DHT22;9330;52.210;21.174;2022-11-25T11:31:59;0.60;99.90
18408;DHT22;9330;52.210;21.174;2022-11-25T11:34:41;0.80;99.90
18408;DHT22;9330;52.210;21.174;2022-11-25T11:37:23;0.70;99.90
18408;DHT22;9330;52.210;21.174;2022-11-25T11:40:20;0.80;99.90
18408;DHT22;9330;52.210;21.174;2022-11-25T11:45:49;0.80;99.90
18408;DHT22;9330;52.210;21.174;2022-11-25T11:48:25;0.70;99.90
18408;DHT22;9330;52.210;21.174;2022-11-25T11:51:00;0.80;99.90
18408;DHT22;9330;52.210;21.174;2022-11-25T11:53:30;0.80;99.90
18408;DHT22;9330;52.210;21.174;2022-11-25T11:56:06;0.80;99.90
18408;DHT22;9330;52.210;21.174;2022-11-25T11:58:54;0.70;99.90
18408;DHT22;9330;52.210;21.174;2022-11-25T12:01:35;0.80;99.90
18408;DHT22;9330;52.210;21.174;2022-11-25T12:04:14;0.90;99.90
18408;DHT22;9330;52.210;21.174;2022-11-25T12:06:47;0.80;99.90
18408;DHT22;9330;52.210;21.174;2022-11-25T12:09:19;0.80;99.90
18408;DHT22;9330;52.210;21.174;2022-11-25T12:11:52;0.80;99.90
18408;DHT22;9330;52.210;21.174;2022-11-25T12:14:31;0.80;99.90
18408;DHT22;9330;52.210;21.174;2022-11-25T12:17:01;0.90;99.90
18408;DHT22;9330;52.210;21.174;2022-11-25T12:19:37;0.80;99.90
18408;DHT22;9330;52.210;21.174;2022-11-25T12:22:07;0.80;99.90
18408;DHT22;9330;52.210;21.174;2022-11-25T12:24:41;1.00;99.90
18408;DHT22;9330;52.210;21.174;2022-11-25T12:27:13;0.80;99.90
18408;DHT22;9330;52.210;21.174;2022-11-25T12:29:45;0.80;99.90
18408;DHT22;9330;52.210;21.174;2022-11-25T12:32:33;0.90;99.90
18408;DHT22;9330;52.210;21.174;2022-11-25T12:35:13;0.80;99.90
18408;DHT22;9330;52.210;21.174;2022-11-25T12:37:45;0.90;99.90
18408;DHT22;9330;52.210;21.174;2022-11-25T12:40:19;0.90;99.90
18408;DHT22;9330;52.210;21.174;2022-11-25T12:42:50;0.80;99.90
18408;DHT22;9330;52.210;21.174;2022-11-25T12:45:23;0.90;99.90
18408;DHT22;9330;52.210;21.174;2022-11-25T12:47:52;0.90;99.90
18408;DHT22;9330;52.210;21.174;2022-11-25T12:50:26;0.90;99.90
18408;DHT22;9330;52.210;21.174;2022-11-25T12:53:02;0.90;99.90
18408;DHT22;9330;52.210;21.174;2022-11-25T12:55:38;0.90;99.90
18408;DHT22;9330;52.210;21.174;2022-11-25T12:58:29;0.90;99.90
18408;DHT22;9330;52.210;21.174;2022-11-25T13:04:28;0.90;99.90
18408;DHT22;9330;52.210;21.174;2022-11-25T13:07:27;0.80;99.90
18408;DHT22;9330;52.210;21.174;2022-11-25T13:10:19;0.80;99.90
18408;DHT22;9330;52.210;21.174;2022-11-25T13:15:41;0.90;99.90
18408;DHT22;9330;52.210;21.174;2022-11-25T13:18:11;1.00;99.90
18408;DHT22;9330;52.210;21.174;2022-11-25T13:20:43;0.90;99.90
18408;DHT22;9330;52.210;21.174;2022-11-25T13:23:26;0.90;99.90
18408;DHT22;9330;52.210;21.174;2022-11-25T13:32:39;0.90;99.90
18408;DHT22;9330;52.210;21.174;2022-11-25T13:35:41;0.90;99.90
18408;DHT22;9330;52.210;21.174;2022-11-25T13:39:02;0.90;99.90
18408;DHT22;9330;52.210;21.174;2022-11-25T13:41:36;0.90;99.90
18408;DHT22;9330;52.210;21.174;2022-11-25T13:46:58;0.80;99.90
18408;DHT22;9330;52.210;21.174;2022-11-25T13:49:49;0.90;99.90
18408;DHT22;9330;52.210;21.174;2022-11-25T13:52:39;0.90;99.90
18408;DHT22;9330;52.210;21.174;2022-11-25T13:55:29;0.90;99.90
18408;DHT22;9330;52.210;21.174;2022-11-25T13:58:03;0.90;99.90
18408;DHT22;9330;52.210;21.174;2022-11-25T14:00:46;0.90;99.90
18408;DHT22;9330;52.210;21.174;2022-11-25T14:03:43;0.90;99.90
18408;DHT22;9330;52.210;21.174;2022-11-25T14:09:27;0.90;99.90
18408;DHT22;9330;52.210;21.174;2022-11-25T14:12:10;0.90;99.90
18408;DHT22;9330;52.210;21.174;2022-11-25T14:18:27;0.80;99.90
18408;DHT22;9330;52.210;21.174;2022-11-25T14:21:02;0.80;99.90
18408;DHT22;9330;52.210;21.174;2022-11-25T14:23:41;0.80;99.90
18408;DHT22;9330;52.210;21.174;2022-11-25T14:26:12;0.90;99.90
18408;DHT22;9330;52.210;21.174;2022-11-25T14:28:46;0.80;99.90
18408;DHT22;9330;52.210;21.174;2022-11-25T14:31:17;0.80;99.90
18408;DHT22;9330;52.210;21.174;2022-11-25T14:33:51;0.80;99.90
18408;DHT22;9330;52.210;21.174;2022-11-25T14:36:21;0.90;99.90
18408;DHT22;9330;52.210;21.174;2022-11-25T14:38:54;0.80;99.90
18408;DHT22;9330;52.210;21.174;2022-11-25T14:41:29;0.90;99.90
18408;DHT22;9330;52.210;21.174;2022-11-25T14:44:03;0.80;99.90
18408;DHT22;9330;52.210;21.174;2022-11-25T14:46:30;0.80;99.90
18408;DHT22;9330;52.210;21.174;2022-11-25T14:48:59;0.80;99.90
18408;DHT22;9330;52.210;21.174;2022-11-25T14:51:32;0.90;99.90
18408;DHT22;9330;52.210;21.174;2022-11-25T14:54:01;0.80;99.90
18408;DHT22;9330;52.210;21.174;2022-11-25T14:56:32;0.90;99.90
18408;DHT22;9330;52.210;21.174;2022-11-25T14:59:01;0.80;99.90
18408;DHT22;9330;52.210;21.174;2022-11-25T15:01:29;0.80;99.90
18408;DHT22;9330;52.210;21.174;2022-11-25T15:04:02;0.80;99.90
18408;DHT22;9330;52.210;21.174;2022-11-25T15:06:33;0.80;99.90
18408;DHT22;9330;52.210;21.174;2022-11-25T15:09:00;0.90;99.90
18408;DHT22;9330;52.210;21.174;2022-11-25T15:11:31;0.80;99.90
18408;DHT22;9330;52.210;21.174;2022-11-25T15:14:02;0.80;99.90
18408;DHT22;9330;52.210;21.174;2022-11-25T15:16:32;0.80;99.90
18408;DHT22;9330;52.210;21.174;2022-11-25T15:19:02;0.80;99.90
18408;DHT22;9330;52.210;21.174;2022-11-25T15:21:31;0.80;99.90
18408;DHT22;9330;52.210;21.174;2022-11-25T15:24:00;0.90;99.90
18408;DHT22;9330;52.210;21.174;2022-11-25T15:26:29;0.90;99.90
18408;DHT22;9330;52.210;21.174;2022-11-25T15:28:57;0.80;99.90
18408;DHT22;9330;52.210;21.174;2022-11-25T15:31:29;0.80;99.90
18408;DHT22;9330;52.210;21.174;2022-11-25T15:33:58;0.80;99.90
18408;DHT22;9330;52.210;21.174;2022-11-25T15:36:27;0.80;99.90
18408;DHT22;9330;52.210;21.174;2022-11-25T15:38:54;0.80;99.90
18408;DHT22;9330;52.210;21.174;2022-11-25T15:41:42;0.80;99.90
18408;DHT22;9330;52.210;21.174;2022-11-25T15:44:18;0.80;99.90
18408;DHT22;9330;52.210;21.174;2022-11-25T15:46:56;0.80;99.90
18408;DHT22;9330;52.210;21.174;2022-11-25T15:49:25;0.80;99.90
18408;DHT22;9330;52.210;21.174;2022-11-25T15:51:55;1.00;99.90
18408;DHT22;9330;52.210;21.174;2022-11-25T15:54:27;0.80;99.90
18408;DHT22;9330;52.210;21.174;2022-11-25T15:56:57;0.80;99.90
18408;DHT22;9330;52.210;21.174;2022-11-25T15:59:39;0.80;99.90
18408;DHT22;9330;52.210;21.174;2022-11-25T16:02:31;0.90;99.90
18408;DHT22;9330;52.210;21.174;2022-11-25T16:05:16;0.80;99.90
18408;DHT22;9330;52.210;21.174;2022-11-25T16:10:56;0.80;99.90
18408;DHT22;9330;52.210;21.174;2022-11-25T16:13:34;0.90;99.90
18408;DHT22;9330;52.210;21.174;2022-11-25T16:16:13;0.80;99.90
18408;DHT22;9330;52.210;21.174;2022-11-25T16:18:47;0.80;99.90
18408;DHT22;9330;52.210;21.174;2022-11-25T16:21:20;0.80;99.90
18408;DHT22;9330;52.210;21.174;2022-11-25T16:23:50;0.80;99.90
18408;DHT22;9330;52.210;21.174;2022-11-25T16:26:23;0.90;99.90
18408;DHT22;9330;52.210;21.174;2022-11-25T16:28:53;0.90;99.90
18408;DHT22;9330;52.210;21.174;2022-11-25T16:31:20;0.90;99.90
18408;DHT22;9330;52.210;21.174;2022-11-25T16:33:50;0.90;99.90
18408;DHT22;9330;52.210;21.174;2022-11-25T16:36:18;0.80;99.90
18408;DHT22;9330;52.210;21.174;2022-11-25T16:38:50;0.80;99.90
18408;DHT22;9330;52.210;21.174;2022-11-25T16:41:19;0.80;99.90
18408;DHT22;9330;52.210;21.174;2022-11-25T16:43:47;0.80;99.90